Logan Cache Airport
KLGU : now visible

Airfield :











YOU CAN JOIN US ON...

 
LOGIN :

Register | Disclaimer

   EN    FR    IT 

 









Legend :    VFR   Marginal VFR   IFR   Intensive IFR   Very Intensive IFR
Visi :
Ceiling :
>= 8 km
>= 3000ft
5 to 8 km
1000 to 3000 ft
1500m to 5 km
500 to 1000 ft
800 to 1500m
200 to 500 ft
< 800m
< 200 ft
Symbols :   Thunderstorms  Fog  Heavy snow  Heavy precipitations  Wind > 20 kt






- Airport Elevation : 4457 ft


KLGU - Logan Cache

CURRENT METAR :
  • 201051Z AUTO VRB03KT 10SM CLR 04/01 A3006 RMK AO2 SLP157 T00390006

EXPIRED METARs :
  • 200951Z AUTO 02003KT 10SM CLR 03/01 A3006 RMK AO2 SLP159 T00330006
  • 200851Z AUTO 22004KT 10SM CLR 07/01 A3007 RMK AO2 SLP157 T00670006 50001

TAF KLGU
Valid from the 20 at 12:00 until the 21 at 12:00 UTC


201120Z 2012/2112 VRB04KT P6SM SCT200
FM201800 28007KT P6SM BKN200
FM210300 VRB04KT P6SM SCT200
KZLC FIR / North America



MET'MAP, your aeronautical weather chart ! - Copyright ORBIFLY December 2007 - Disclaimer

ORBIFLY MET'MAP TEAM :

Programming & Development : Alexandra Zaïnal
Concept & original design : Baudouin d'Aumeries
Assistance for programming : Marc-Olivier Méhu
Technical & hardware support : Manuel Goepfert

Contact : metmap@orbifly.com




SOURCES & CREDITS :

   NOAA       Earth
Advisory